createdAt,value
2023-05-23T00:01:55.233Z,97404.25
2023-05-23T00:04:22.108Z,97402.53
2023-05-23T00:06:50.553Z,97403.50
2023-05-23T00:09:17.321Z,97405.47
2023-05-23T00:11:45.228Z,97403.78
2023-05-23T00:14:13.651Z,97399.72
2023-05-23T00:16:41.500Z,97403.25
2023-05-23T00:19:09.506Z,97405.81
2023-05-23T00:21:36.235Z,97404.69
2023-05-23T00:24:02.779Z,97410.16
2023-05-23T00:26:32.154Z,97405.22
2023-05-23T00:28:58.853Z,97402.84
2023-05-23T00:31:25.467Z,97407.19
2023-05-23T00:33:52.033Z,97409.44
2023-05-23T00:36:19.017Z,97407.19
2023-05-23T00:38:49.367Z,97411.25
2023-05-23T00:41:16.276Z,97417.00
2023-05-23T00:43:42.989Z,97423.91
2023-05-23T00:46:10.606Z,97425.50
2023-05-23T00:48:38.613Z,97425.75
2023-05-23T00:51:05.519Z,97433.72
2023-05-23T00:53:32.043Z,97433.44
2023-05-23T00:55:58.577Z,97432.16
2023-05-23T00:58:25.165Z,97434.19
2023-05-23T01:00:54.394Z,97426.03
2023-05-23T01:03:21.140Z,97429.59
2023-05-23T01:05:47.853Z,97423.88
2023-05-23T01:08:15.815Z,97430.34
2023-05-23T01:10:42.552Z,97440.06
2023-05-23T01:13:22.227Z,97436.47
2023-05-23T01:16:13.717Z,97439.22
2023-05-23T01:18:47.658Z,97440.78
2023-05-23T01:21:17.944Z,97434.66
2023-05-23T01:24:06.122Z,97444.47
2023-05-23T01:27:05.347Z,97438.00
2023-05-23T01:29:38.074Z,97450.44
2023-05-23T01:32:06.633Z,97452.28
2023-05-23T01:34:34.466Z,97454.63
2023-05-23T01:37:01.003Z,97455.41
2023-05-23T01:39:27.551Z,97452.56
2023-05-23T01:41:54.051Z,97456.28
2023-05-23T01:44:21.406Z,97448.38
2023-05-23T01:46:48.058Z,97448.63
2023-05-23T01:49:14.675Z,97442.22
2023-05-23T01:51:41.271Z,97442.44
2023-05-23T01:54:07.794Z,97439.56
2023-05-23T01:56:34.473Z,97437.88
2023-05-23T01:59:02.018Z,97441.38
2023-05-23T02:01:28.583Z,97438.09
2023-05-23T02:03:55.572Z,97438.78
2023-05-23T02:06:22.105Z,97435.16
2023-05-23T02:08:48.592Z,97442.00
2023-05-23T02:11:15.985Z,97438.31
2023-05-23T02:13:42.532Z,97439.69
2023-05-23T02:16:09.106Z,97441.66
2023-05-23T02:18:38.250Z,97448.09
2023-05-23T02:21:06.029Z,97446.84
2023-05-23T02:23:32.701Z,97451.09
2023-05-23T02:25:59.251Z,97443.78
2023-05-23T02:28:25.994Z,97456.38
2023-05-23T02:30:52.587Z,97450.03
2023-05-23T02:33:19.741Z,97464.53
2023-05-23T02:35:46.420Z,97462.44
2023-05-23T02:38:13.035Z,97461.13
2023-05-23T02:40:39.534Z,97465.19
2023-05-23T02:43:06.063Z,97467.97
2023-05-23T02:45:32.785Z,97458.69
2023-05-23T02:47:59.337Z,97457.03
2023-05-23T02:50:26.167Z,97465.44
2023-05-23T02:52:52.706Z,97460.00
2023-05-23T02:55:19.300Z,97460.88
2023-05-23T02:57:46.163Z,97463.63
2023-05-23T03:00:13.357Z,97468.59
2023-05-23T03:02:39.956Z,97465.44
2023-05-23T03:05:07.116Z,97458.41
2023-05-23T03:07:33.917Z,97457.78
2023-05-23T03:10:01.214Z,97455.28
2023-05-23T03:12:30.591Z,97453.81
2023-05-23T03:14:57.089Z,97451.41
2023-05-23T03:17:25.514Z,97459.47
2023-05-23T03:19:52.058Z,97452.72
2023-05-23T03:22:18.571Z,97458.41
2023-05-23T03:24:45.075Z,97455.13
2023-05-23T03:27:11.660Z,97448.16
2023-05-23T03:29:38.268Z,97451.50
2023-05-23T03:32:05.109Z,97457.25
2023-05-23T03:34:33.103Z,97461.63
2023-05-23T03:37:00.020Z,97460.44
2023-05-23T03:39:26.585Z,97464.44
2023-05-23T03:41:53.317Z,97465.78
2023-05-23T03:44:19.987Z,97471.50
2023-05-23T03:46:46.484Z,97463.25
2023-05-23T03:49:13.265Z,97460.19
2023-05-23T03:51:39.766Z,97462.59
2023-05-23T03:54:06.480Z,97470.63
2023-05-23T03:56:33.241Z,97472.19
2023-05-23T03:59:00.032Z,97477.75
2023-05-23T04:01:27.745Z,97481.59
2023-05-23T04:03:54.714Z,97476.47
2023-05-23T04:06:22.759Z,97473.50
2023-05-23T04:08:49.268Z,97473.56
2023-05-23T04:11:15.873Z,97474.69
2023-05-23T04:13:42.752Z,97468.09
2023-05-23T04:16:09.356Z,97478.41
2023-05-23T04:18:39.132Z,97471.09
2023-05-23T04:21:05.804Z,97464.56
2023-05-23T04:23:32.387Z,97461.69
2023-05-23T04:25:59.374Z,97472.38
2023-05-23T04:28:28.823Z,97467.41
2023-05-23T04:30:56.356Z,97477.94
2023-05-23T04:33:23.074Z,97488.91
2023-05-23T04:35:49.710Z,97489.84
2023-05-23T04:38:17.142Z,97502.66
2023-05-23T04:40:43.773Z,97493.59
2023-05-23T04:43:14.217Z,97497.63
2023-05-23T04:45:41.694Z,97510.78
2023-05-23T04:48:08.676Z,97507.00
2023-05-23T04:50:35.935Z,97496.63
2023-05-23T04:53:02.455Z,97506.75
2023-05-23T04:55:29.342Z,97502.06
2023-05-23T04:57:56.276Z,97501.06
2023-05-23T05:00:22.786Z,97503.16
2023-05-23T05:02:49.435Z,97498.47
2023-05-23T05:05:16.080Z,97504.28
2023-05-23T05:07:42.592Z,97498.94
2023-05-23T05:10:16.805Z,97494.56
2023-05-23T05:12:46.947Z,97494.56
2023-05-23T05:15:13.700Z,97494.97
2023-05-23T05:17:40.756Z,97499.06
2023-05-23T05:20:08.673Z,97509.97
2023-05-23T05:22:36.463Z,97509.28
2023-05-23T05:25:03.809Z,97504.63
2023-05-23T05:27:30.326Z,97500.00
2023-05-23T05:30:04.614Z,97506.88
2023-05-23T05:32:33.699Z,97498.38
2023-05-23T05:35:00.952Z,97503.03
2023-05-23T05:37:27.868Z,97512.53
2023-05-23T05:39:55.010Z,97517.34
2023-05-23T05:42:22.055Z,97525.72
2023-05-23T05:44:49.064Z,97518.25
2023-05-23T05:47:15.787Z,97521.53
2023-05-23T05:49:42.313Z,97526.00
2023-05-23T05:52:08.894Z,97515.16
2023-05-23T05:54:36.133Z,97521.72
2023-05-23T05:57:02.728Z,97533.66
2023-05-23T05:59:31.125Z,97522.88
2023-05-23T06:01:58.981Z,97533.66
2023-05-23T06:04:25.565Z,97529.47
2023-05-23T06:06:52.194Z,97527.16
2023-05-23T06:09:18.750Z,97522.66
2023-05-23T06:11:45.329Z,97530.06
2023-05-23T06:14:11.950Z,97533.97
2023-05-23T06:16:38.963Z,97535.44
2023-05-23T06:19:06.163Z,97529.47
2023-05-23T06:21:33.158Z,97541.66
2023-05-23T06:23:59.670Z,97535.63
2023-05-23T06:26:26.869Z,97545.59
2023-05-23T06:28:53.471Z,97546.31
2023-05-23T06:31:20.054Z,97539.81
2023-05-23T06:33:46.615Z,97550.59
2023-05-23T06:36:13.188Z,97546.31
2023-05-23T06:38:39.730Z,97552.53
2023-05-23T06:41:07.293Z,97556.59
2023-05-23T06:43:33.976Z,97554.75
2023-05-23T06:46:00.598Z,97555.47
2023-05-23T06:48:27.111Z,97550.53
2023-05-23T06:50:53.678Z,97559.94
2023-05-23T06:53:20.250Z,97556.63
2023-05-23T06:55:47.112Z,97556.84
2023-05-23T06:58:14.672Z,97543.09
2023-05-23T07:00:41.379Z,97550.16
2023-05-23T07:03:08.210Z,97545.72
2023-05-23T07:05:37.399Z,97542.25
2023-05-23T07:08:07.303Z,97545.44
2023-05-23T07:10:35.245Z,97554.31
2023-05-23T07:13:01.828Z,97549.63
2023-05-23T07:15:28.395Z,97559.31
2023-05-23T07:17:54.983Z,97561.31
2023-05-23T07:20:21.937Z,97565.34
2023-05-23T07:22:48.483Z,97563.94
2023-05-23T07:25:15.057Z,97568.25
2023-05-23T07:27:41.642Z,97579.63
2023-05-23T07:30:09.809Z,97585.44
2023-05-23T07:32:36.717Z,97578.00
2023-05-23T07:35:03.370Z,97577.75
2023-05-23T07:37:29.886Z,97575.19
2023-05-23T07:39:56.390Z,97577.63
2023-05-23T07:42:22.947Z,97580.72
2023-05-23T07:44:49.469Z,97576.41
2023-05-23T07:47:16.028Z,97586.81
2023-05-23T07:49:42.642Z,97579.47
2023-05-23T07:52:09.193Z,97590.94
2023-05-23T07:54:35.769Z,97581.94
2023-05-23T07:57:02.385Z,97588.34
2023-05-23T07:59:30.116Z,97586.34
2023-05-23T08:01:56.729Z,97573.88
2023-05-23T08:04:23.350Z,97581.47
2023-05-23T08:07:04.494Z,97581.59
2023-05-23T08:09:31.889Z,97584.63
2023-05-23T08:11:58.436Z,97576.94
2023-05-23T08:14:29.430Z,97566.53
2023-05-23T08:17:05.221Z,97580.44
2023-05-23T08:19:32.267Z,97575.28
2023-05-23T08:21:58.881Z,97585.22
2023-05-23T08:24:25.615Z,97577.63
2023-05-23T08:26:52.141Z,97602.56
2023-05-23T08:29:18.728Z,97602.78
2023-05-23T08:31:45.368Z,97596.44
2023-05-23T08:34:12.451Z,97596.06
2023-05-23T08:36:39.940Z,97601.09
2023-05-23T08:39:06.891Z,97602.19
2023-05-23T08:41:33.525Z,97596.88
2023-05-23T08:44:00.047Z,97598.78
2023-05-23T08:46:27.327Z,97599.81
2023-05-23T08:48:54.894Z,97588.16
2023-05-23T08:51:23.928Z,97626.50
2023-05-23T08:53:53.012Z,97607.47
2023-05-23T08:56:20.018Z,97616.88
2023-05-23T08:58:47.653Z,97609.25
2023-05-23T09:01:14.666Z,97623.72
2023-05-23T09:03:44.370Z,97611.91
2023-05-23T09:06:11.074Z,97619.94
2023-05-23T09:08:37.785Z,97612.06
2023-05-23T09:11:05.968Z,97625.53
2023-05-23T09:13:33.025Z,97625.53
2023-05-23T09:16:02.406Z,97625.00
2023-05-23T09:18:42.368Z,97629.81
2023-05-23T09:21:09.735Z,97623.41
2023-05-23T09:23:36.992Z,97624.53
2023-05-23T09:26:07.825Z,97626.69
2023-05-23T09:28:34.828Z,97621.91
2023-05-23T09:31:05.302Z,97612.72
2023-05-23T09:33:47.861Z,97622.91
2023-05-23T09:36:14.244Z,97631.63
2023-05-23T09:38:41.702Z,97632.34
2023-05-23T09:41:08.306Z,97629.97
2023-05-23T09:43:34.922Z,97626.00
2023-05-23T09:46:09.337Z,97625.25
2023-05-23T09:48:36.026Z,97643.84
2023-05-23T09:51:09.108Z,97643.53
2023-05-23T09:53:35.917Z,97643.75
2023-05-23T09:56:03.063Z,97660.66
2023-05-23T09:58:32.629Z,97645.53
2023-05-23T10:01:03.797Z,97659.47
2023-05-23T10:03:35.643Z,97647.41
2023-05-23T10:06:10.695Z,97653.06
2023-05-23T10:08:39.474Z,97644.91
2023-05-23T10:11:16.474Z,97651.00
2023-05-23T10:13:47.168Z,97639.75
2023-05-23T10:16:55.213Z,97650.97
2023-05-23T10:19:28.090Z,97639.75
2023-05-23T10:21:59.484Z,97663.03
2023-05-23T10:24:27.385Z,97647.66
2023-05-23T10:26:55.216Z,97638.63
2023-05-23T10:29:25.172Z,97641.28
2023-05-23T10:31:52.133Z,97629.78
2023-05-23T10:34:48.069Z,97643.59
2023-05-23T10:37:21.198Z,97634.97
2023-05-23T10:40:08.221Z,97632.22
2023-05-23T10:42:52.179Z,97630.94
2023-05-23T10:45:22.478Z,97633.28
2023-05-23T10:47:51.146Z,97644.22
2023-05-23T10:50:32.156Z,97634.38
2023-05-23T10:53:00.221Z,97640.63
2023-05-23T10:55:28.057Z,97643.06
2023-05-23T10:58:30.526Z,97654.94
2023-05-23T11:00:59.682Z,97642.66
2023-05-23T11:03:49.840Z,97644.16
2023-05-23T11:06:44.400Z,97641.13
2023-05-23T11:09:19.319Z,97637.47
2023-05-23T11:11:52.369Z,97636.84
2023-05-23T11:14:19.451Z,97637.94
2023-05-23T11:16:47.265Z,97639.31
2023-05-23T11:19:23.173Z,97637.66
2023-05-23T11:22:00.208Z,97632.75
2023-05-23T11:24:52.526Z,97627.25
2023-05-23T11:27:32.027Z,97626.50
2023-05-23T11:29:59.105Z,97628.97
2023-05-23T11:32:28.136Z,97612.19
2023-05-23T11:34:54.711Z,97626.06
2023-05-23T11:37:21.340Z,97624.88
2023-05-23T11:39:47.850Z,97628.00
2023-05-23T11:42:14.363Z,97636.19
2023-05-23T11:44:40.917Z,97620.13
2023-05-23T11:47:08.369Z,97627.97
2023-05-23T11:49:36.397Z,97627.00
2023-05-23T11:52:03.150Z,97620.69
2023-05-23T11:54:29.723Z,97620.59
2023-05-23T11:56:56.296Z,97622.09
2023-05-23T11:59:26.223Z,97618.00
2023-05-23T12:01:53.075Z,97623.06
2023-05-23T12:04:19.684Z,97614.03
2023-05-23T12:06:47.312Z,97618.94
2023-05-23T12:09:14.086Z,97621.06
2023-05-23T12:11:41.195Z,97623.31
2023-05-23T12:14:08.506Z,97628.97
2023-05-23T12:16:36.114Z,97629.59
2023-05-23T12:19:04.834Z,97624.31
2023-05-23T12:21:41.849Z,97621.91
2023-05-23T12:24:21.400Z,97622.31
2023-05-23T12:26:49.132Z,97634.78
2023-05-23T12:29:16.491Z,97628.13
2023-05-23T12:31:43.046Z,97613.19
2023-05-23T12:34:10.857Z,97616.38
2023-05-23T12:36:48.040Z,97634.91
2023-05-23T12:39:15.921Z,97635.28
2023-05-23T12:41:43.500Z,97631.06
2023-05-23T12:44:10.074Z,97635.63
2023-05-23T12:46:37.103Z,97622.31
2023-05-23T12:49:03.828Z,97648.91
2023-05-23T12:51:30.650Z,97622.53
2023-05-23T12:53:57.265Z,97615.22
2023-05-23T12:56:23.863Z,97632.25
2023-05-23T12:58:50.488Z,97623.31
2023-05-23T13:01:17.152Z,97629.25
2023-05-23T13:03:43.725Z,97646.09
2023-05-23T13:06:10.307Z,97631.22
2023-05-23T13:08:37.162Z,97636.03
2023-05-23T13:11:03.918Z,97633.88
2023-05-23T13:13:30.568Z,97643.53
2023-05-23T13:15:57.228Z,97645.94
2023-05-23T13:18:23.895Z,97646.59
2023-05-23T13:20:50.497Z,97643.03
2023-05-23T13:23:17.063Z,97647.00
2023-05-23T13:25:43.766Z,97643.09
2023-05-23T13:28:10.566Z,97644.41
2023-05-23T13:30:37.153Z,97641.81
2023-05-23T13:33:03.809Z,97666.06
2023-05-23T13:35:30.455Z,97650.19
2023-05-23T13:37:57.350Z,97655.91
2023-05-23T13:40:23.959Z,97645.94
2023-05-23T13:42:51.285Z,97658.06
2023-05-23T13:45:18.918Z,97664.53
2023-05-23T13:47:46.438Z,97666.41
2023-05-23T13:50:12.958Z,97659.38
2023-05-23T13:52:42.925Z,97680.59
2023-05-23T13:55:10.880Z,97654.16
2023-05-23T13:57:37.383Z,97667.59
2023-05-23T14:00:04.330Z,97668.06
2023-05-23T14:02:32.106Z,97667.88
2023-05-23T14:04:58.889Z,97669.34
2023-05-23T14:07:25.659Z,97670.47
2023-05-23T14:09:52.189Z,97650.88
2023-05-23T14:12:18.697Z,97679.38
2023-05-23T14:14:45.360Z,97666.06
2023-05-23T14:17:16.072Z,97665.72
2023-05-23T14:19:42.969Z,97669.41
2023-05-23T14:22:10.019Z,97668.50
2023-05-23T14:24:36.640Z,97656.22
2023-05-23T14:27:03.724Z,97657.56
2023-05-23T14:29:30.257Z,97679.41
2023-05-23T14:31:56.846Z,97667.00
2023-05-23T14:34:23.390Z,97668.06
2023-05-23T14:36:50.285Z,97680.63
2023-05-23T14:39:16.877Z,97668.88
2023-05-23T14:41:43.512Z,97675.44
2023-05-23T14:44:10.121Z,97677.97
2023-05-23T14:46:37.555Z,97685.03
2023-05-23T14:49:04.198Z,97684.56
2023-05-23T14:51:44.747Z,97681.81
2023-05-23T14:54:13.027Z,97678.72
2023-05-23T14:56:41.157Z,97680.06
2023-05-23T14:59:08.139Z,97680.44
2023-05-23T15:01:35.354Z,97687.38
2023-05-23T15:04:05.684Z,97683.41
2023-05-23T15:06:32.323Z,97689.63
2023-05-23T15:08:58.858Z,97686.66
2023-05-23T15:11:27.413Z,97688.56
2023-05-23T15:13:54.294Z,97709.16
2023-05-23T15:16:20.937Z,97695.59
2023-05-23T15:18:47.704Z,97688.34
2023-05-23T15:21:14.438Z,97697.91
2023-05-23T15:23:41.509Z,97690.19
2023-05-23T15:26:08.379Z,97694.09
2023-05-23T15:28:34.897Z,97689.22
2023-05-23T15:31:01.404Z,97688.06
2023-05-23T15:33:28.042Z,97691.47
2023-05-23T15:35:54.933Z,97689.44
2023-05-23T15:38:21.470Z,97683.94
2023-05-23T15:40:49.084Z,97691.22
2023-05-23T15:43:15.652Z,97697.56
2023-05-23T15:45:42.481Z,97693.66
2023-05-23T15:48:09.283Z,97696.47
2023-05-23T15:50:35.902Z,97702.78
2023-05-23T15:53:02.425Z,97705.56
2023-05-23T15:55:29.067Z,97698.56
2023-05-23T15:57:55.633Z,97701.63
2023-05-23T16:00:22.230Z,97697.28
2023-05-23T16:02:48.820Z,97712.41
2023-05-23T16:05:15.344Z,97704.78
2023-05-23T16:07:41.858Z,97711.44
2023-05-23T16:10:08.698Z,97708.84
2023-05-23T16:12:35.418Z,97714.13
2023-05-23T16:15:01.948Z,97711.59
2023-05-23T16:17:28.499Z,97707.94
2023-05-23T16:19:55.094Z,97707.75
2023-05-23T16:22:21.635Z,97714.59
2023-05-23T16:24:48.187Z,97711.41
2023-05-23T16:27:14.700Z,97720.50
2023-05-23T16:29:41.242Z,97704.63
2023-05-23T16:32:08.118Z,97710.47
2023-05-23T16:34:35.277Z,97704.78
2023-05-23T16:37:01.806Z,97713.34
2023-05-23T16:39:28.694Z,97712.78
2023-05-23T16:41:55.284Z,97704.88
2023-05-23T16:44:21.894Z,97720.63
2023-05-23T16:46:48.632Z,97711.69
2023-05-23T16:49:15.246Z,97713.34
2023-05-23T16:51:41.775Z,97708.22
2023-05-23T16:54:08.922Z,97710.03
2023-05-23T16:56:36.028Z,97715.88
2023-05-23T16:59:02.531Z,97726.69
2023-05-23T17:01:29.504Z,97710.41
2023-05-23T17:03:56.778Z,97723.94
2023-05-23T17:06:23.459Z,97729.09
2023-05-23T17:08:50.042Z,97721.75
2023-05-23T17:11:16.603Z,97729.81
2023-05-23T17:13:44.309Z,97723.84
2023-05-23T17:16:11.872Z,97725.84
2023-05-23T17:18:38.514Z,97727.72
2023-05-23T17:21:05.064Z,97724.09
2023-05-23T17:23:31.622Z,97729.78
2023-05-23T17:25:58.117Z,97729.38
2023-05-23T17:28:24.649Z,97732.94
2023-05-23T17:30:54.128Z,97730.72
2023-05-23T17:33:20.634Z,97732.75
2023-05-23T17:35:47.167Z,97736.53
2023-05-23T17:38:14.321Z,97735.13
2023-05-23T17:40:42.048Z,97731.84
2023-05-23T17:43:09.103Z,97735.31
2023-05-23T17:45:36.187Z,97740.09
2023-05-23T17:48:03.561Z,97737.66
2023-05-23T17:50:30.522Z,97747.88
2023-05-23T17:52:57.337Z,97741.31
2023-05-23T17:55:23.869Z,97746.88
2023-05-23T17:57:50.531Z,97748.66
2023-05-23T18:00:17.727Z,97750.59
2023-05-23T18:02:44.342Z,97753.41
2023-05-23T18:05:10.908Z,97755.53
2023-05-23T18:07:37.938Z,97744.28
2023-05-23T18:10:05.396Z,97764.72
2023-05-23T18:12:32.332Z,97758.28
2023-05-23T18:14:58.935Z,97763.22
2023-05-23T18:17:25.669Z,97761.66
2023-05-23T18:19:52.203Z,97760.13
2023-05-23T18:22:19.888Z,97769.88
2023-05-23T18:24:46.822Z,97763.16
2023-05-23T18:27:13.357Z,97769.84
2023-05-23T18:29:39.929Z,97771.13
2023-05-23T18:32:06.548Z,97780.25
2023-05-23T18:34:33.107Z,97777.16
2023-05-23T18:36:59.674Z,97772.88
2023-05-23T18:39:26.358Z,97781.56
2023-05-23T18:41:52.854Z,97781.19
2023-05-23T18:44:20.929Z,97777.06
2023-05-23T18:46:47.844Z,97784.97
2023-05-23T18:49:14.440Z,97796.63
2023-05-23T18:51:42.228Z,97798.06
2023-05-23T18:54:08.730Z,97799.53
2023-05-23T18:56:35.671Z,97800.78
2023-05-23T18:59:02.363Z,97806.59
2023-05-23T19:01:28.998Z,97811.13
2023-05-23T19:03:57.119Z,97817.97
2023-05-23T19:06:23.956Z,97816.53
2023-05-23T19:08:50.799Z,97817.56
2023-05-23T19:11:17.336Z,97822.75
2023-05-23T19:13:44.031Z,97826.25
2023-05-23T19:16:10.644Z,97823.16
2023-05-23T19:18:37.426Z,97835.56
2023-05-23T19:21:04.080Z,97826.03
2023-05-23T19:23:30.602Z,97833.84
2023-05-23T19:25:57.107Z,97833.88
2023-05-23T19:28:23.720Z,97833.47
2023-05-23T19:30:50.323Z,97845.03
2023-05-23T19:33:18.067Z,97846.66
2023-05-23T19:35:44.911Z,97849.16
2023-05-23T19:38:11.734Z,97853.50
2023-05-23T19:40:38.377Z,97860.28
2023-05-23T19:43:05.353Z,97854.06
2023-05-23T19:45:31.846Z,97862.56
2023-05-23T19:47:58.488Z,97861.94
2023-05-23T19:50:25.252Z,97873.06
2023-05-23T19:52:52.250Z,97870.59
2023-05-23T19:55:18.835Z,97882.34
2023-05-23T19:57:45.539Z,97886.22
2023-05-23T20:00:14.703Z,97890.00
2023-05-23T20:02:41.573Z,97890.44
2023-05-23T20:05:08.527Z,97886.72
2023-05-23T20:07:36.474Z,97896.41
2023-05-23T20:10:03.487Z,97897.00
2023-05-23T20:12:30.050Z,97899.53
2023-05-23T20:14:57.479Z,97903.84
2023-05-23T20:17:24.032Z,97910.06
2023-05-23T20:19:50.682Z,97910.66
2023-05-23T20:22:17.281Z,97918.50
2023-05-23T20:24:43.830Z,97922.59
2023-05-23T20:27:10.667Z,97922.38
2023-05-23T20:29:37.523Z,97924.25
2023-05-23T20:32:04.186Z,97929.16
2023-05-23T20:34:31.792Z,97927.50
2023-05-23T20:36:58.340Z,97930.34
2023-05-23T20:39:24.906Z,97929.69
2023-05-23T20:41:51.779Z,97927.03
2023-05-23T20:44:18.396Z,97934.41
2023-05-23T20:46:45.085Z,97937.47
2023-05-23T20:49:11.734Z,97930.22
2023-05-23T20:51:38.580Z,97935.13
2023-05-23T20:54:05.642Z,97932.59
2023-05-23T20:56:32.657Z,97929.41
2023-05-23T20:59:01.974Z,97942.22
2023-05-23T21:01:28.599Z,97940.84
2023-05-23T21:03:55.571Z,97948.59
2023-05-23T21:06:22.423Z,97943.13
2023-05-23T21:08:48.999Z,97943.94
2023-05-23T21:11:15.673Z,97944.31
2023-05-23T21:13:42.270Z,97952.88
2023-05-23T21:16:08.769Z,97947.75
2023-05-23T21:18:35.317Z,97947.28
2023-05-23T21:21:01.882Z,97946.19
2023-05-23T21:23:28.419Z,97942.28
2023-05-23T21:25:55.899Z,97947.41
2023-05-23T21:28:22.478Z,97938.28
2023-05-23T21:30:49.515Z,97941.16
2023-05-23T21:33:16.201Z,97944.22
2023-05-23T21:35:45.055Z,97955.50
2023-05-23T21:38:11.582Z,97950.59
2023-05-23T21:40:38.122Z,97954.63
2023-05-23T21:43:04.623Z,97958.13
2023-05-23T21:45:31.212Z,97952.41
2023-05-23T21:47:57.824Z,97963.22
2023-05-23T21:50:24.363Z,97965.28
2023-05-23T21:52:50.924Z,97959.09
2023-05-23T21:55:17.507Z,97965.03
2023-05-23T21:57:44.046Z,97966.59
2023-05-23T22:00:12.538Z,97970.56
2023-05-23T22:02:39.793Z,97973.06
2023-05-23T22:05:07.046Z,97977.50
2023-05-23T22:07:33.600Z,97981.19
2023-05-23T22:10:00.301Z,97981.66
2023-05-23T22:12:26.894Z,97976.88
2023-05-23T22:14:54.710Z,97971.31
2023-05-23T22:17:22.737Z,97967.03
2023-05-23T22:19:51.782Z,97978.00
2023-05-23T22:22:18.955Z,97977.13
2023-05-23T22:24:45.548Z,97972.81
2023-05-23T22:27:12.293Z,97982.09
2023-05-23T22:29:38.858Z,97973.63
2023-05-23T22:32:05.550Z,97983.25
2023-05-23T22:34:32.140Z,97971.78
2023-05-23T22:37:00.264Z,97979.59
2023-05-23T22:39:27.196Z,97978.72
2023-05-23T22:41:53.903Z,97977.00
2023-05-23T22:44:20.478Z,97977.75
2023-05-23T22:46:47.120Z,97977.63
2023-05-23T22:49:15.340Z,97970.84
2023-05-23T22:51:42.064Z,97975.22
2023-05-23T22:54:08.788Z,97978.63
2023-05-23T22:56:35.493Z,97977.28
2023-05-23T22:59:02.244Z,97972.59
2023-05-23T23:01:29.939Z,97970.72
2023-05-23T23:03:56.547Z,97971.91
2023-05-23T23:06:23.042Z,97977.22
2023-05-23T23:08:49.952Z,97971.84
2023-05-23T23:11:16.581Z,97984.56
2023-05-23T23:13:43.120Z,97978.22
2023-05-23T23:16:09.789Z,97979.69
2023-05-23T23:18:36.331Z,97979.13
2023-05-23T23:21:02.890Z,97979.88
2023-05-23T23:23:29.524Z,97980.25
2023-05-23T23:25:56.124Z,97980.16
2023-05-23T23:28:22.633Z,97982.25
2023-05-23T23:30:49.210Z,97988.44
2023-05-23T23:33:15.878Z,97976.09
2023-05-23T23:35:45.350Z,97982.16
2023-05-23T23:38:13.101Z,97987.50
2023-05-23T23:40:39.707Z,97982.06
2023-05-23T23:43:06.299Z,97976.25
2023-05-23T23:45:32.886Z,97978.47
2023-05-23T23:47:59.463Z,97981.72
2023-05-23T23:50:26.800Z,97969.44
2023-05-23T23:52:53.382Z,97973.16
2023-05-23T23:55:19.968Z,97972.50
2023-05-23T23:57:46.751Z,97965.22
